Time;durP1;ratioP1;P1;durP2;ratioP2;P2;SDS_P1;SDS_P2;PMS_P1;PMS_P2;Temp;Humidity;BMP_temperature;BMP_pressure;BME280_temperature;BME280_humidity;BME280_pressure;Samples;Min_cycle;Max_cycle;Signal;HPM_P1;HPM_P2
2023/10/12 00:00:24;;;;;;;6.53;4.07;;;10.80;99.90;;;;;;4985252;28;20034;-40
2023/10/12 00:02:48;;;;;;;5.63;3.95;;;10.80;99.90;;;;;;4985660;28;20032;-36
2023/10/12 00:05:17;;;;;;;8.07;4.40;;;10.60;99.90;;;;;;4985054;28;20061;-41
2023/10/12 00:07:45;;;;;;;7.35;4.88;;;10.60;99.90;;;;;;4981400;28;20070;-37
2023/10/12 00:12:45;;;;;;;6.85;4.50;;;10.70;99.90;;;;;;4984288;28;20034;-33
2023/10/12 00:17:55;;;;;;;6.65;4.30;;;10.80;99.90;;;;;;4979533;28;20026;-33
2023/10/12 00:20:25;;;;;;;8.48;4.10;;;10.80;99.90;;;;;;4982967;28;20039;-34
2023/10/12 00:22:51;;;;;;;9.50;4.57;;;10.90;99.90;;;;;;4987236;28;20026;-33
2023/10/12 00:25:17;;;;;;;7.00;4.53;;;10.90;99.90;;;;;;4982106;28;20045;-32
2023/10/12 00:27:43;;;;;;;6.72;4.68;;;11.00;99.90;;;;;;4984579;28;20531;-34
2023/10/12 00:30:11;;;;;;;7.28;4.10;;;10.80;99.90;;;;;;4982204;28;20041;-33
2023/10/12 00:32:37;;;;;;;6.78;4.10;;;10.40;99.90;;;;;;4983823;28;20490;-35
2023/10/12 00:35:04;;;;;;;8.70;4.53;;;10.30;99.90;;;;;;4978880;28;20070;-33
2023/10/12 00:37:32;;;;;;;8.98;4.90;;;10.20;99.90;;;;;;4978325;28;20034;-33
2023/10/12 00:39:58;;;;;;;9.18;3.88;;;10.20;99.90;;;;;;4990806;28;20492;-32
2023/10/12 00:42:36;;;;;;;6.80;4.30;;;10.30;99.90;;;;;;4981470;28;20552;-35
2023/10/12 00:45:11;;;;;;;6.43;3.60;;;10.20;99.90;;;;;;4980158;28;20039;-33
2023/10/12 00:47:51;;;;;;;5.57;3.88;;;10.20;99.90;;;;;;4981476;28;20038;-35
2023/10/12 00:50:17;;;;;;;6.80;4.03;;;10.20;99.90;;;;;;4983210;28;20042;-34
2023/10/12 00:52:57;;;;;;;5.18;3.53;;;10.20;99.90;;;;;;4983194;28;20484;-34
2023/10/12 00:55:35;;;;;;;5.95;3.58;;;10.20;99.90;;;;;;4983393;28;20098;-33
2023/10/12 00:58:04;;;;;;;6.25;4.15;;;10.20;99.90;;;;;;4983033;28;20089;-34
2023/10/12 01:00:35;;;;;;;9.07;4.45;;;10.30;99.90;;;;;;4983162;28;20039;-35
2023/10/12 01:03:07;;;;;;;6.63;4.28;;;10.40;99.90;;;;;;4983566;28;20174;-33
2023/10/12 01:05:35;;;;;;;6.50;4.03;;;10.40;99.90;;;;;;4978671;28;20053;-33
2023/10/12 01:08:05;;;;;;;8.43;3.60;;;10.40;99.90;;;;;;4977192;28;20025;-39
2023/10/12 01:10:40;;;;;;;5.97;4.10;;;10.30;99.90;;;;;;4979579;28;20035;-34
2023/10/12 01:13:09;;;;;;;6.47;4.32;;;10.10;99.90;;;;;;4986102;28;20039;-33
2023/10/12 01:15:34;;;;;;;8.27;4.10;;;10.00;99.90;;;;;;4979487;28;20018;-37
2023/10/12 01:18:00;;;;;;;6.90;3.85;;;10.00;99.90;;;;;;4978788;28;20039;-32
2023/10/12 01:20:36;;;;;;;5.55;4.07;;;10.00;99.90;;;;;;4985316;28;20042;-34
2023/10/12 01:23:03;;;;;;;7.05;4.10;;;9.90;99.90;;;;;;4984655;28;20031;-35
2023/10/12 01:25:30;;;;;;;6.07;3.95;;;9.80;99.90;;;;;;4980380;28;20384;-39
2023/10/12 01:27:56;;;;;;;7.30;4.53;;;9.90;99.90;;;;;;4979995;28;20077;-39
2023/10/12 01:30:22;;;;;;;10.40;4.88;;;9.80;99.90;;;;;;4977145;28;20050;-35
2023/10/12 01:32:57;;;;;;;7.07;4.22;;;9.90;99.90;;;;;;4980059;28;20089;-37
2023/10/12 01:35:32;;;;;;;5.65;3.78;;;10.00;99.90;;;;;;4981272;28;20042;-40
2023/10/12 01:38:00;;;;;;;7.20;3.90;;;10.00;99.90;;;;;;4978845;28;20030;-40
2023/10/12 01:43:14;;;;;;;5.97;4.80;;;10.10;99.90;;;;;;4979351;28;20089;-40
2023/10/12 01:45:43;;;;;;;7.63;3.95;;;10.20;99.90;;;;;;4986884;28;20571;-41
2023/10/12 01:48:57;;;;;;;6.57;3.97;;;10.20;99.90;;;;;;4976744;28;20042;-40
2023/10/12 01:51:02;;;;;;;4.97;3.55;;;10.20;99.90;;;;;;4983911;28;20154;-41
2023/10/12 01:53:32;;;;;;;7.57;3.92;;;10.30;99.90;;;;;;4976367;28;20050;-41
2023/10/12 01:55:59;;;;;;;7.25;3.83;;;10.30;99.90;;;;;;4988902;28;20037;-38
2023/10/12 01:58:28;;;;;;;7.18;4.05;;;10.40;99.90;;;;;;4978327;28;20492;-35
2023/10/12 02:00:55;;;;;;;7.25;3.90;;;10.30;99.90;;;;;;4981822;28;20065;-40
2023/10/12 02:03:31;;;;;;;10.45;4.57;;;10.40;99.90;;;;;;4983897;28;20057;-40
2023/10/12 02:06:23;;;;;;;6.22;3.65;;;10.40;99.90;;;;;;4991090;28;20085;-37
2023/10/12 02:08:49;;;;;;;6.13;3.47;;;10.40;99.90;;;;;;4984738;28;20079;-40
2023/10/12 02:13:47;;;;;;;10.85;4.03;;;10.50;99.90;;;;;;4983765;28;20098;-40
2023/10/12 02:16:13;;;;;;;8.10;4.00;;;10.70;99.90;;;;;;4985572;28;20035;-40
2023/10/12 02:18:40;;;;;;;6.07;3.75;;;10.70;99.90;;;;;;4988676;28;20539;-40
2023/10/12 02:31:54;;;;;;;8.82;4.13;;;11.20;99.90;;;;;;4980374;28;20642;-40
2023/10/12 02:34:28;;;;;;;5.80;3.80;;;11.30;99.90;;;;;;4985891;28;20113;-40
2023/10/12 02:37:18;;;;;;;9.60;4.53;;;11.30;99.90;;;;;;4986010;28;20039;-39
2023/10/12 02:39:43;;;;;;;8.30;4.57;;;11.40;99.90;;;;;;4984167;28;20047;-40
2023/10/12 02:47:22;;;;;;;10.50;4.70;;;11.60;99.90;;;;;;4981780;28;20503;-37
2023/10/12 02:50:00;;;;;;;10.05;4.00;;;11.70;99.90;;;;;;4989226;28;20038;-39
2023/10/12 02:52:27;;;;;;;;;;;11.70;99.90;;;;;;4983939;28;20099;-35
2023/10/12 02:54:55;;;;;;;6.18;4.00;;;11.80;99.90;;;;;;4981957;28;20325;-37
2023/10/12 02:57:33;;;;;;;13.73;4.32;;;11.80;99.90;;;;;;4984466;28;20030;-37
2023/10/12 03:00:08;;;;;;;9.27;4.20;;;11.90;99.90;;;;;;4989127;28;20511;-39
2023/10/12 03:02:34;;;;;;;7.90;3.97;;;12.00;99.90;;;;;;4982128;28;20037;-37
2023/10/12 03:05:06;;;;;;;9.45;4.18;;;11.90;99.90;;;;;;4983320;28;20030;-40
2023/10/12 03:07:35;;;;;;;8.90;4.15;;;11.90;99.90;;;;;;4983906;28;20138;-39
2023/10/12 03:10:06;;;;;;;6.88;3.92;;;11.80;99.90;;;;;;4992485;28;20520;-40
2023/10/12 03:12:35;;;;;;;6.80;3.38;;;11.70;99.90;;;;;;4981606;28;20236;-38
2023/10/12 03:15:12;;;;;;;5.35;3.35;;;11.70;99.90;;;;;;4979763;28;20087;-39
2023/10/12 03:17:45;;;;;;;6.15;3.53;;;11.60;99.90;;;;;;4979771;28;20052;-40
2023/10/12 03:20:23;;;;;;;6.85;4.28;;;11.60;99.90;;;;;;4981922;28;20026;-40
2023/10/12 03:22:59;;;;;;;6.53;3.70;;;11.70;99.90;;;;;;4986057;28;20022;-39
2023/10/12 03:25:43;;;;;;;11.40;3.75;;;11.70;99.90;;;;;;4983908;28;20034;-39
2023/10/12 03:28:13;;;;;;;7.13;4.32;;;11.80;99.90;;;;;;4982742;28;20034;-39
2023/10/12 03:30:53;;;;;;;7.32;4.00;;;11.90;99.90;;;;;;4986410;28;20105;-39
2023/10/12 03:33:19;;;;;;;7.22;3.63;;;11.90;99.90;;;;;;4982250;28;20038;-38
2023/10/12 03:35:57;;;;;;;10.52;3.22;;;11.90;99.90;;;;;;4983438;28;20919;-36
2023/10/12 03:38:25;;;;;;;4.97;3.80;;;11.90;99.90;;;;;;4980201;28;22262;-36
2023/10/12 03:41:45;;;;;;;8.40;3.70;;;11.90;99.90;;;;;;4984951;28;20032;-38
2023/10/12 03:43:40;;;;;;;6.90;3.58;;;11.90;99.90;;;;;;4981652;28;20046;-38
2023/10/12 03:46:26;;;;;;;7.13;4.15;;;12.00;99.90;;;;;;4983543;28;20545;-39
2023/10/12 03:49:23;;;;;;;6.68;3.78;;;12.00;99.90;;;;;;4988702;28;20027;-39
2023/10/12 03:51:49;;;;;;;7.68;4.57;;;11.90;99.90;;;;;;4986863;28;20037;-29
2023/10/12 03:54:26;;;;;;;9.00;3.78;;;11.90;99.90;;;;;;4982954;28;20057;-30
2023/10/12 03:56:56;;;;;;;8.50;3.50;;;11.80;99.90;;;;;;4982827;28;20035;-30
2023/10/12 03:59:31;;;;;;;7.65;3.95;;;11.80;99.90;;;;;;4986531;28;20035;-31
2023/10/12 04:02:00;;;;;;;6.47;3.28;;;11.80;99.90;;;;;;4978211;28;20027;-30
2023/10/12 04:04:34;;;;;;;7.45;3.58;;;11.70;99.90;;;;;;4981098;28;20042;-34
2023/10/12 04:09:32;;;;;;;8.48;3.63;;;11.60;99.90;;;;;;4986687;28;20567;-30
2023/10/12 04:14:48;;;;;;;7.38;3.50;;;11.70;99.90;;;;;;4981343;28;20030;-32
2023/10/12 04:25:21;;;;;;;8.40;3.47;;;11.50;99.90;;;;;;4986256;28;20026;-30
2023/10/12 04:28:00;;;;;;;6.20;3.20;;;11.50;99.90;;;;;;4977039;28;20046;-30
2023/10/12 04:33:24;;;;;;;7.85;2.95;;;11.50;99.90;;;;;;4959962;28;19914;-31
2023/10/12 04:41:38;;;;;;;7.13;3.30;;;11.50;99.90;;;;;;4981086;28;20034;-32
2023/10/12 04:43:39;;;;;;;5.20;3.38;;;11.50;99.90;;;;;;4971256;28;20042;-30
2023/10/12 04:48:43;;;;;;;6.28;3.67;;;11.10;99.90;;;;;;4977158;28;20031;-33
2023/10/12 04:51:18;;;;;;;7.15;3.75;;;10.90;99.90;;;;;;4982470;28;20018;-30
2023/10/12 04:53:57;;;;;;;4.47;3.33;;;10.80;99.90;;;;;;4982014;28;20198;-31
2023/10/12 04:56:26;;;;;;;5.40;3.50;;;10.70;99.90;;;;;;4986116;28;20038;-35
2023/10/12 04:58:56;;;;;;;4.43;3.20;;;10.80;99.90;;;;;;4982359;28;20202;-29
2023/10/12 05:01:29;;;;;;;5.82;3.15;;;10.80;99.90;;;;;;4978390;28;20030;-32
2023/10/12 05:04:18;;;;;;;4.82;2.95;;;10.80;99.90;;;;;;4975289;28;20027;-32
2023/10/12 05:07:20;;;;;;;6.60;3.00;;;10.80;99.90;;;;;;4980726;28;20503;-31
2023/10/12 05:09:32;;;;;;;;;;;10.80;99.90;;;;;;4987963;28;20030;-33
2023/10/12 05:11:58;;;;;;;6.88;3.53;;;10.80;99.90;;;;;;4982895;28;19918;-34
2023/10/12 05:14:25;;;;;;;6.25;3.20;;;10.80;99.90;;;;;;4981059;28;20117;-33
2023/10/12 05:16:51;;;;;;;8.57;3.58;;;10.90;99.90;;;;;;4973190;28;20125;-34
2023/10/12 05:19:16;;;;;;;5.70;3.92;;;10.90;99.90;;;;;;4979346;28;20141;-33
2023/10/12 05:21:43;;;;;;;4.75;3.13;;;10.90;99.90;;;;;;4972156;28;20070;-32
2023/10/12 05:24:09;;;;;;;6.25;4.03;;;10.90;99.90;;;;;;4977636;28;20034;-34
2023/10/12 05:26:36;;;;;;;8.52;3.40;;;10.90;99.90;;;;;;4976473;28;20031;-33
2023/10/12 05:32:05;;;;;;;6.25;3.72;;;10.90;99.90;;;;;;4981119;28;20061;-32
2023/10/12 05:39:59;;;;;;;7.38;3.40;;;10.90;99.90;;;;;;4984894;28;20027;-35
2023/10/12 05:42:27;;;;;;;7.85;3.33;;;10.90;99.90;;;;;;4981182;28;20038;-34
2023/10/12 05:45:05;;;;;;;7.88;3.28;;;11.00;99.90;;;;;;4987661;28;20423;-32
2023/10/12 05:47:30;;;;;;;8.10;3.22;;;11.00;99.90;;;;;;4984165;28;20424;-33
2023/10/12 05:49:59;;;;;;;9.15;3.50;;;10.90;99.90;;;;;;4993217;28;20038;-35
2023/10/12 05:52:25;;;;;;;7.25;3.97;;;10.90;99.90;;;;;;4979014;28;20049;-34
2023/10/12 05:54:58;;;;;;;8.07;3.50;;;11.00;99.90;;;;;;4986528;28;20062;-34
2023/10/12 05:57:25;;;;;;;8.55;3.80;;;10.90;99.90;;;;;;4989381;28;20022;-33
2023/10/12 05:59:51;;;;;;;5.90;3.55;;;10.90;99.90;;;;;;4984441;28;20111;-35
2023/10/12 06:02:22;;;;;;;6.57;3.42;;;10.90;99.90;;;;;;4980205;28;20129;-38
2023/10/12 06:04:48;;;;;;;8.88;4.20;;;10.90;99.90;;;;;;4989312;28;20169;-39
2023/10/12 06:07:14;;;;;;;9.02;3.42;;;10.90;99.90;;;;;;4988443;28;20062;-39
2023/10/12 06:09:40;;;;;;;7.25;3.50;;;11.00;99.90;;;;;;4989104;28;20035;-40
2023/10/12 06:12:07;;;;;;;6.07;3.50;;;11.00;99.90;;;;;;4981580;28;20034;-39
2023/10/12 06:14:38;;;;;;;8.90;3.85;;;11.00;99.90;;;;;;4988601;28;20113;-39
2023/10/12 06:17:09;;;;;;;7.78;4.03;;;11.00;99.90;;;;;;4985972;28;20030;-38
2023/10/12 06:19:37;;;;;;;7.63;3.63;;;11.10;99.90;;;;;;4988849;28;20546;-39
2023/10/12 06:22:25;;;;;;;8.90;4.28;;;11.20;99.90;;;;;;4985472;28;20026;-40
2023/10/12 06:24:53;;;;;;;8.77;3.60;;;11.20;99.90;;;;;;4986374;28;20109;-39
2023/10/12 06:29:55;;;;;;;8.10;3.72;;;11.30;99.90;;;;;;4985258;28;20423;-39
2023/10/12 06:32:40;;;;;;;10.55;4.07;;;11.40;99.90;;;;;;4983575;28;20042;-38
2023/10/12 06:37:49;;;;;;;8.15;3.97;;;11.40;99.90;;;;;;4979419;28;20041;-38
2023/10/12 06:45:48;;;;;;;4.57;3.53;;;11.50;99.90;;;;;;4985454;28;20030;-39
2023/10/12 06:48:33;;;;;;;8.35;3.60;;;11.60;99.90;;;;;;4986563;28;20034;-40
2023/10/12 06:51:13;;;;;;;6.60;3.80;;;11.70;99.90;;;;;;4986397;28;20077;-38
2023/10/12 06:54:18;;;;;;;6.07;3.65;;;12.00;99.90;;;;;;4976464;28;20136;-37
2023/10/12 06:56:38;;;;;;;5.85;3.33;;;12.30;99.90;;;;;;4982327;28;20575;-40
2023/10/12 06:59:21;;;;;;;6.00;3.63;;;12.50;99.90;;;;;;4985511;28;20041;-38
2023/10/12 07:04:25;;;;;;;7.10;3.67;;;13.10;99.90;;;;;;4986040;28;20023;-39
2023/10/12 07:06:59;;;;;;;6.35;3.47;;;13.20;99.90;;;;;;4983473;28;20085;-39
2023/10/12 07:09:42;;;;;;;5.80;3.03;;;13.50;99.90;;;;;;4983597;28;20073;-37
2023/10/12 07:12:19;;;;;;;4.40;3.10;;;13.60;99.90;;;;;;4977607;28;20023;-29
2023/10/12 07:14:53;;;;;;;7.15;3.58;;;13.70;99.90;;;;;;4985216;28;20034;-30
2023/10/12 07:17:27;;;;;;;6.90;3.78;;;13.80;99.90;;;;;;4984549;28;20062;-30
2023/10/12 07:19:55;;;;;;;5.22;2.83;;;13.70;99.90;;;;;;4988769;28;20046;-29
2023/10/12 07:22:21;;;;;;;5.22;2.90;;;13.80;99.90;;;;;;4986668;28;20053;-40
2023/10/12 07:24:54;;;;;;;7.45;3.17;;;13.90;99.90;;;;;;4987086;28;20416;-39
2023/10/12 07:27:22;;;;;;;6.78;3.30;;;14.00;99.90;;;;;;4978404;28;20506;-39
2023/10/12 07:30:02;;;;;;;6.28;3.20;;;14.10;99.90;;;;;;4985485;28;20064;-39
2023/10/12 07:34:58;;;;;;;5.93;3.10;;;14.30;99.90;;;;;;4982430;28;20133;-38
2023/10/12 07:37:27;;;;;;;7.22;3.42;;;14.50;99.90;;;;;;4979157;28;20038;-37
2023/10/12 07:39:56;;;;;;;6.82;3.10;;;14.60;99.90;;;;;;4981440;28;20023;-39
2023/10/12 07:42:26;;;;;;;6.22;3.10;;;14.70;99.90;;;;;;4983196;28;20080;-40
2023/10/12 07:44:56;;;;;;;7.47;3.08;;;14.90;99.90;;;;;;4987313;28;20050;-39
2023/10/12 07:47:32;;;;;;;5.57;2.85;;;15.10;99.90;;;;;;4989740;28;20048;-40
2023/10/12 07:50:06;;;;;;;5.38;3.15;;;15.30;99.90;;;;;;4979744;28;20149;-39
2023/10/12 07:52:39;;;;;;;7.97;2.70;;;15.50;99.90;;;;;;4980407;28;20083;-40
2023/10/12 07:55:12;;;;;;;7.40;3.20;;;15.70;99.90;;;;;;4888916;28;20085;-39
2023/10/12 07:57:39;;;;;;;5.20;2.70;;;15.90;99.90;;;;;;4980895;28;20034;-38
2023/10/12 08:08:07;;;;;;;3.50;2.60;;;16.10;99.90;;;;;;4980639;28;20168;-39
2023/10/12 08:13:48;;;;;;;5.40;2.67;;;16.20;99.90;;;;;;4983402;28;20428;-40
2023/10/12 08:16:03;;;;;;;6.47;2.63;;;16.20;99.90;;;;;;4983221;28;20038;-38
2023/10/12 08:26:35;;;;;;;8.60;3.30;;;16.30;99.90;;;;;;4979747;28;20157;-40
2023/10/12 08:31:45;;;;;;;7.50;2.80;;;16.40;99.90;;;;;;4982315;28;20604;-32
2023/10/12 08:39:38;;;;;;;6.63;2.67;;;16.70;99.90;;;;;;4982758;28;20109;-31
2023/10/12 08:42:55;;;;;;;7.03;3.22;;;16.80;99.90;;;;;;4978572;28;20034;-32
2023/10/12 08:44:58;;;;;;;6.00;2.40;;;16.90;99.90;;;;;;4968455;28;20038;-33
2023/10/12 08:52:28;;;;;;;5.20;2.13;;;17.20;99.90;;;;;;4980892;28;20109;-32
2023/10/12 08:55:03;;;;;;;5.00;2.50;;;17.30;99.90;;;;;;4984020;28;20081;-31
2023/10/12 08:57:43;;;;;;;6.55;2.90;;;17.40;99.90;;;;;;4982161;28;20980;-31
2023/10/12 09:03:14;;;;;;;5.70;2.92;;;17.60;99.90;;;;;;4983890;28;20044;-32
2023/10/12 09:05:40;;;;;;;3.15;2.42;;;17.80;99.90;;;;;;4991612;28;20764;-32
2023/10/12 09:08:51;;;;;;;5.60;2.97;;;18.00;99.90;;;;;;4988785;28;20026;-31
2023/10/12 09:11:13;;;;;;;4.68;2.72;;;18.20;99.90;;;;;;4984405;28;20052;-31
2023/10/12 09:13:45;;;;;;;6.68;2.30;;;18.50;99.90;;;;;;4986720;28;20030;-32
2023/10/12 09:16:14;;;;;;;7.43;2.60;;;18.60;99.90;;;;;;4982224;28;20117;-34
2023/10/12 09:19:23;;;;;;;9.13;3.28;;;18.70;99.90;;;;;;4983226;28;20029;-31
2023/10/12 09:21:57;;;;;;;8.20;2.88;;;18.80;99.90;;;;;;4982651;28;20026;-32
2023/10/12 09:24:28;;;;;;;3.72;2.53;;;18.90;99.90;;;;;;4983868;28;20050;-32
2023/10/12 09:27:02;;;;;;;6.45;2.72;;;18.90;99.90;;;;;;4982477;28;20054;-32
2023/10/12 09:29:29;;;;;;;7.32;2.58;;;19.00;99.90;;;;;;4989998;28;20056;-32
2023/10/12 09:37:45;;;;;;;7.15;2.53;;;19.40;99.90;;;;;;4991345;28;20113;-30
2023/10/12 09:43:01;;;;;;;7.72;2.65;;;19.60;99.90;;;;;;4985640;28;20052;-41
2023/10/12 09:45:33;;;;;;;5.78;2.80;;;19.60;99.90;;;;;;4981316;28;20031;-38
2023/10/12 09:48:05;;;;;;;5.13;2.40;;;19.60;99.90;;;;;;4982947;28;20069;-41
2023/10/12 09:50:33;;;;;;;5.22;2.60;;;19.60;99.90;;;;;;4978694;28;20046;-39
2023/10/12 09:53:12;;;;;;;7.05;3.00;;;19.60;99.90;;;;;;4986484;28;20121;-38
2023/10/12 09:55:40;;;;;;;7.07;3.15;;;19.70;99.90;;;;;;4983205;28;20521;-40
2023/10/12 09:58:12;;;;;;;10.10;5.05;;;19.70;99.90;;;;;;4986125;28;20121;-39
2023/10/12 10:00:59;;;;;;;3.38;2.63;;;19.80;99.90;;;;;;4987100;28;20023;-39
2023/10/12 10:03:27;;;;;;;7.28;3.00;;;19.90;99.90;;;;;;4983528;28;20026;-33
2023/10/12 10:06:10;;;;;;;11.23;3.50;;;19.80;99.90;;;;;;4985573;28;20500;-40
2023/10/12 10:08:44;;;;;;;6.53;2.95;;;19.90;99.90;;;;;;4983642;28;20555;-40
2023/10/12 10:11:12;;;;;;;5.97;2.83;;;20.10;99.90;;;;;;4984721;28;20084;-38
2023/10/12 10:13:49;;;;;;;5.75;3.05;;;20.10;99.90;;;;;;4984144;28;20038;-37
2023/10/12 10:16:18;;;;;;;6.00;3.50;;;20.20;99.90;;;;;;4983902;28;20042;-38
2023/10/12 10:19:13;;;;;;;5.10;2.90;;;20.30;99.90;;;;;;4982729;28;20035;-35
2023/10/12 10:21:49;;;;;;;6.65;3.22;;;20.40;99.90;;;;;;4983214;28;20030;-39
2023/10/12 10:24:19;;;;;;;6.63;2.95;;;20.50;99.90;;;;;;4979281;28;20027;-39
2023/10/12 10:26:47;;;;;;;6.18;2.95;;;20.60;99.90;;;;;;4983020;28;20027;-35
2023/10/12 10:29:17;;;;;;;5.88;3.03;;;20.60;99.90;;;;;;4984970;28;20543;-40
2023/10/12 10:31:45;;;;;;;6.20;2.50;;;20.70;99.90;;;;;;4979903;28;20332;-32
2023/10/12 10:34:14;;;;;;;5.35;2.85;;;20.80;99.90;;;;;;4984919;28;20424;-38
2023/10/12 10:36:44;;;;;;;9.95;3.75;;;20.80;99.90;;;;;;4984394;28;20073;-39
2023/10/12 10:41:46;;;;;;;8.88;3.13;;;20.80;99.90;;;;;;4986214;28;20022;-33
2023/10/12 10:44:16;;;;;;;6.35;2.85;;;20.70;99.90;;;;;;4981516;28;20027;-29
2023/10/12 10:46:57;;;;;;;9.98;3.45;;;20.80;99.90;;;;;;4982030;28;20062;-30
2023/10/12 10:49:30;;;;;;;7.22;2.90;;;20.80;99.90;;;;;;4984725;28;20034;-30
2023/10/12 10:52:44;;;;;;;6.75;2.80;;;20.90;99.90;;;;;;4982324;28;20396;-36
2023/10/12 10:54:59;;;;;;;6.53;2.95;;;21.00;99.90;;;;;;4978706;28;20096;-38
2023/10/12 10:57:25;;;;;;;6.95;2.97;;;21.20;99.90;;;;;;4984039;28;20084;-35
2023/10/12 10:59:51;;;;;;;6.47;3.22;;;21.30;99.90;;;;;;4985830;28;20042;-37
2023/10/12 11:02:20;;;;;;;5.57;3.10;;;21.50;99.90;;;;;;4979800;28;20493;-39
2023/10/12 11:04:46;;;;;;;7.05;3.13;;;21.50;99.90;;;;;;4989429;28;20030;-38
2023/10/12 11:07:14;;;;;;;6.55;3.00;;;21.60;99.90;;;;;;4985383;28;20030;-39
2023/10/12 11:12:23;;;;;;;5.07;2.70;;;21.50;99.90;;;;;;4979709;28;20109;-38
2023/10/12 11:17:57;;;;;;;6.20;3.35;;;21.30;99.90;;;;;;4925270;29;20041;-37
2023/10/12 11:23:09;;;;;;;6.20;3.08;;;21.30;99.90;;;;;;4983830;28;20045;-37
2023/10/12 11:25:41;;;;;;;6.47;3.20;;;21.30;99.90;;;;;;4984273;28;20034;-39
2023/10/12 11:28:37;;;;;;;7.25;3.10;;;21.50;99.90;;;;;;4982277;28;20065;-39
2023/10/12 11:31:30;;;;;;;8.65;3.05;;;21.60;99.90;;;;;;4975360;28;20043;-37
2023/10/12 11:34:06;;;;;;;7.22;3.40;;;21.70;99.90;;;;;;4985585;28;20045;-38
2023/10/12 11:36:33;;;;;;;7.70;3.55;;;21.80;99.90;;;;;;4984887;28;20549;-39
2023/10/12 11:39:04;;;;;;;4.65;3.05;;;21.90;99.90;;;;;;4980446;28;20023;-39
2023/10/12 11:41:30;;;;;;;11.05;3.53;;;22.00;99.90;;;;;;4978928;28;20042;-40
2023/10/12 11:44:05;;;;;;;8.45;3.45;;;22.10;99.90;;;;;;4980715;28;20030;-36
2023/10/12 11:46:43;;;;;;;5.18;3.28;;;22.20;99.90;;;;;;4976166;28;20118;-39
2023/10/12 11:49:13;;;;;;;8.45;3.50;;;22.20;99.90;;;;;;4982870;28;20066;-40
2023/10/12 11:51:50;;;;;;;5.07;2.75;;;22.30;99.90;;;;;;4983298;28;20081;-40
2023/10/12 11:54:32;;;;;;;4.00;2.75;;;22.40;99.90;;;;;;4988356;28;20058;-40
2023/10/12 11:56:58;;;;;;;6.25;2.65;;;22.50;99.90;;;;;;4981067;28;20030;-39
2023/10/12 11:59:31;;;;;;;4.40;2.78;;;22.70;99.90;;;;;;4986390;28;20488;-34
2023/10/12 12:02:03;;;;;;;4.68;2.90;;;22.80;99.90;;;;;;4985238;28;20030;-35
2023/10/12 12:04:39;;;;;;;4.93;3.25;;;22.80;99.90;;;;;;4983005;28;20019;-30
2023/10/12 12:07:05;;;;;;;5.03;3.38;;;22.80;99.90;;;;;;4984323;28;20027;-29
2023/10/12 12:09:31;;;;;;;7.95;3.28;;;22.70;99.90;;;;;;4984097;28;20492;-29
2023/10/12 12:11:57;;;;;;;7.78;3.40;;;22.80;99.90;;;;;;4988268;28;20029;-30
2023/10/12 12:14:23;;;;;;;4.65;2.88;;;22.70;99.90;;;;;;4983317;28;20117;-35
2023/10/12 12:16:48;;;;;;;7.70;3.53;;;22.80;99.90;;;;;;4984322;28;20121;-29
2023/10/12 12:19:19;;;;;;;4.15;2.60;;;22.90;99.90;;;;;;4979397;28;20019;-30
2023/10/12 12:21:46;;;;;;;7.43;3.05;;;22.80;99.90;;;;;;4981811;28;20046;-30
2023/10/12 12:24:22;;;;;;;6.65;3.47;;;22.80;99.90;;;;;;4985433;28;20030;-30
2023/10/12 12:26:57;;;;;;;5.28;3.15;;;22.90;99.90;;;;;;4969149;28;20034;-30
2023/10/12 12:29:26;;;;;;;10.80;2.97;;;22.90;99.90;;;;;;4988698;28;20034;-30
2023/10/12 12:31:52;;;;;;;4.55;3.15;;;22.90;99.90;;;;;;4986078;28;20039;-29
2023/10/12 12:34:38;;;;;;;4.75;3.05;;;22.90;99.90;;;;;;4971162;28;20035;-38
2023/10/12 12:37:05;;;;;;;5.88;2.72;;;23.00;99.90;;;;;;4978441;28;20034;-38
2023/10/12 12:39:33;;;;;;;8.43;3.20;;;23.10;99.90;;;;;;4979586;28;20113;-38
2023/10/12 12:41:59;;;;;;;5.13;3.38;;;23.10;99.90;;;;;;4978458;28;20060;-39
2023/10/12 12:44:25;;;;;;;5.55;3.13;;;23.30;99.90;;;;;;4983506;28;20022;-36
2023/10/12 12:46:50;;;;;;;8.80;3.50;;;23.40;99.90;;;;;;4981139;28;20022;-36
2023/10/12 12:49:16;;;;;;;6.78;3.58;;;23.40;99.90;;;;;;4983135;28;20038;-39
2023/10/12 12:51:43;;;;;;;5.15;2.22;;;23.40;99.90;;;;;;4982157;28;20031;-37
2023/10/12 12:54:08;;;;;;;6.10;3.00;;;23.40;99.90;;;;;;4983783;28;20601;-40
2023/10/12 12:56:36;;;;;;;9.27;4.38;;;23.40;99.90;;;;;;4982041;28;20026;-40
2023/10/12 12:59:04;;;;;;;4.47;2.75;;;23.40;99.90;;;;;;4980325;28;20161;-39
2023/10/12 13:01:31;;;;;;;7.95;3.38;;;23.50;99.90;;;;;;4982420;28;20038;-33
2023/10/12 13:03:57;;;;;;;5.95;3.08;;;23.50;99.90;;;;;;4981672;28;20030;-32
2023/10/12 13:06:25;;;;;;;4.40;2.90;;;23.50;99.90;;;;;;4987675;28;20035;-34
2023/10/12 13:08:51;;;;;;;6.28;2.88;;;23.40;99.90;;;;;;4982121;28;20493;-32
2023/10/12 13:11:18;;;;;;;4.72;3.20;;;23.50;99.90;;;;;;4976208;28;20035;-32
2023/10/12 13:13:44;;;;;;;6.88;2.90;;;23.60;99.90;;;;;;4982756;28;20035;-32
2023/10/12 13:16:12;;;;;;;6.70;2.67;;;23.80;99.90;;;;;;4985402;28;20037;-31
2023/10/12 13:18:38;;;;;;;6.72;3.28;;;23.80;99.90;;;;;;4979946;28;20027;-32
2023/10/12 13:21:06;;;;;;;6.63;2.92;;;23.80;99.90;;;;;;4985947;28;20031;-33
2023/10/12 13:23:35;;;;;;;6.35;3.20;;;23.90;99.90;;;;;;4983296;28;20743;-32
2023/10/12 13:26:08;;;;;;;5.80;3.47;;;23.90;99.90;;;;;;4977063;28;20404;-31
2023/10/12 13:28:34;;;;;;;7.95;2.80;;;23.90;99.90;;;;;;4983425;28;20022;-31
2023/10/12 13:31:01;;;;;;;9.00;3.00;;;23.80;99.90;;;;;;4983041;28;20066;-31
2023/10/12 13:33:28;;;;;;;4.57;2.72;;;23.80;99.90;;;;;;4973119;28;20553;-34
2023/10/12 13:35:56;;;;;;;8.47;2.90;;;23.80;99.90;;;;;;4979487;28;20061;-32
2023/10/12 13:38:22;;;;;;;6.35;2.92;;;23.90;99.90;;;;;;4980591;28;20039;-31
2023/10/12 13:40:51;;;;;;;6.65;3.28;;;24.00;99.90;;;;;;4974799;28;20029;-34
2023/10/12 13:45:49;;;;;;;5.60;3.30;;;23.90;99.90;;;;;;4979219;28;20041;-32
2023/10/12 13:48:25;;;;;;;7.20;3.00;;;23.80;99.90;;;;;;4978050;28;20110;-32
2023/10/12 13:51:04;;;;;;;6.27;2.73;;;23.80;99.90;;;;;;4979701;28;20022;-33
2023/10/12 13:53:36;;;;;;;5.07;2.80;;;23.60;99.90;;;;;;4981306;28;20061;-31
2023/10/12 13:56:09;;;;;;;6.32;3.42;;;23.40;99.90;;;;;;4978604;28;20037;-31
2023/10/12 13:58:36;;;;;;;8.95;3.28;;;23.30;99.90;;;;;;4985615;28;20731;-31
2023/10/12 14:01:13;;;;;;;5.35;3.17;;;23.10;99.90;;;;;;4988855;28;20436;-34
2023/10/12 14:03:41;;;;;;;;;;;22.90;99.90;;;;;;4982584;28;20114;-33
2023/10/12 14:06:07;;;;;;;5.57;2.72;;;22.90;99.90;;;;;;4981746;28;19961;-33
2023/10/12 14:08:36;;;;;;;4.50;2.83;;;22.90;99.90;;;;;;4978042;28;20085;-32
2023/10/12 14:11:06;;;;;;;8.25;3.28;;;22.80;99.90;;;;;;4987159;28;20158;-37
2023/10/12 14:13:33;;;;;;;5.85;3.40;;;22.80;99.90;;;;;;4982565;28;20030;-39
2023/10/12 14:16:00;;;;;;;6.28;3.20;;;22.70;99.90;;;;;;4985360;28;20034;-39
2023/10/12 14:18:28;;;;;;;9.15;2.90;;;22.60;99.90;;;;;;4986325;28;20035;-40
2023/10/12 14:20:58;;;;;;;8.20;3.30;;;22.60;99.90;;;;;;4986694;28;20511;-29
2023/10/12 14:23:26;;;;;;;4.40;2.95;;;22.50;99.90;;;;;;4981343;28;20030;-32
2023/10/12 14:25:54;;;;;;;6.45;2.95;;;22.50;99.90;;;;;;4976505;28;20126;-40
2023/10/12 14:28:21;;;;;;;10.40;3.58;;;22.40;99.90;;;;;;4988694;28;20034;-40
2023/10/12 14:30:47;;;;;;;7.45;2.95;;;22.40;99.90;;;;;;4974991;28;20047;-33
2023/10/12 14:33:15;;;;;;;4.90;3.00;;;22.30;99.90;;;;;;4986291;28;20491;-35
2023/10/12 14:35:42;;;;;;;5.47;3.40;;;22.30;99.90;;;;;;4980315;28;20077;-37
2023/10/12 14:38:08;;;;;;;4.65;3.20;;;22.20;99.90;;;;;;4975949;28;20484;-38
2023/10/12 14:40:44;;;;;;;6.80;3.15;;;22.20;99.90;;;;;;4978883;28;20523;-40
2023/10/12 14:43:12;;;;;;;7.28;2.72;;;22.10;99.90;;;;;;4983928;28;20488;-39
2023/10/12 14:45:45;;;;;;;6.25;3.45;;;22.00;99.90;;;;;;4982464;28;20033;-40
2023/10/12 14:48:11;;;;;;;7.70;3.40;;;21.90;99.90;;;;;;4990195;28;20026;-38
2023/10/12 14:50:47;;;;;;;8.10;3.40;;;21.90;99.90;;;;;;4988755;28;20034;-37
2023/10/12 14:53:20;;;;;;;5.43;3.25;;;21.90;99.90;;;;;;4982864;28;20038;-40
2023/10/12 14:55:52;;;;;;;5.20;2.97;;;21.80;99.90;;;;;;4984301;28;20038;-41
2023/10/12 14:58:19;;;;;;;9.38;3.20;;;21.80;99.90;;;;;;4982331;28;20038;-41
2023/10/12 15:00:45;;;;;;;7.60;3.42;;;21.70;99.90;;;;;;4989876;28;20014;-39
2023/10/12 15:03:21;;;;;;;6.10;3.30;;;21.60;99.90;;;;;;4982342;28;20082;-37
2023/10/12 15:05:59;;;;;;;6.57;3.15;;;21.60;99.90;;;;;;4973520;28;20041;-38
2023/10/12 15:08:25;;;;;;;9.73;3.28;;;21.60;99.90;;;;;;4978576;28;20080;-40
2023/10/12 15:10:54;;;;;;;6.78;3.25;;;21.60;99.90;;;;;;4991445;28;20022;-38
2023/10/12 15:13:22;;;;;;;6.35;3.50;;;21.50;99.90;;;;;;4981043;28;20038;-39
2023/10/12 15:15:49;;;;;;;13.10;3.85;;;21.40;99.90;;;;;;4982746;28;20034;-41
2023/10/12 15:18:16;;;;;;;14.23;4.55;;;21.40;99.90;;;;;;4983471;28;20037;-38
2023/10/12 15:20:48;;;;;;;14.00;4.15;;;21.30;99.90;;;;;;4985212;28;20073;-34